KSPI/SPI METAR and TAF weather

Enter ICAO airport designator
Station Type Date Time Source
KSPI METAR 2020/11/28 19:52 UTC NOAA

KSPI 281952Z 20011KT 10SM CLR 11/02 A3016 RMK AO2 SLP217 T01060017


Station Type Date Time Source
KSPI Decoded METAR 2020/11/28 19:52 UTC NOAA

ABRAHAM LINCOLN CAPITAL AIRPORT , IL, United States (KSPI) 39-51N 89-41W 181M
Nov 28, 2020 - 02:52 PM EST / 2020.11.28 1952 UTC
Wind: from the SSW (200 degrees) at 13 MPH (11 KT):0
Visibility: 10 mile(s):0
Sky conditions: clear
Temperature: 51.1 F (10.6 C)
Dew Point: 35.1 F (1.7 C)
Relative Humidity: 54%
Pressure (altimeter): 30.16 in. Hg (1021 hPa)
ob: KSPI 281952Z 20011KT 10SM CLR 11/02 A3016 RMK AO2 SLP217 T01060017
cycle: 20

Station Type Date Time Source
KSPI TAF 2020/11/28 18:39 UTC NOAA

TAF KSPI 281736Z 2818/2918 21009KT P6SM SKC
FM290700 20005KT P6SM SCT250
FM291300 21006KT P6SM BKN200
FM291600 23007KT P6SM BKN150

Example: see airport list